createdAt,value
2022-08-07T00:01:44.053Z,15.20
2022-08-07T00:04:24.437Z,15.12
2022-08-07T00:06:55.363Z,14.67
2022-08-07T00:09:34.285Z,14.80
2022-08-07T00:12:06.401Z,14.73
2022-08-07T00:14:39.317Z,14.86
2022-08-07T00:17:14.606Z,15.04
2022-08-07T00:20:01.532Z,14.87
2022-08-07T00:22:35.296Z,14.90
2022-08-07T00:25:16.776Z,14.81
2022-08-07T00:27:56.736Z,14.95
2022-08-07T00:30:29.381Z,14.59
2022-08-07T00:32:58.729Z,14.64
2022-08-07T00:35:29.970Z,14.83
2022-08-07T00:38:05.789Z,14.85
2022-08-07T00:40:36.463Z,14.68
2022-08-07T00:44:01.181Z,14.74
2022-08-07T00:46:05.203Z,14.79
2022-08-07T00:48:36.727Z,14.83
2022-08-07T00:51:10.588Z,14.82
2022-08-07T00:53:50.514Z,14.40
2022-08-07T00:56:33.809Z,14.83
2022-08-07T00:59:08.464Z,14.43
2022-08-07T01:01:41.254Z,14.50
2022-08-07T01:04:24.571Z,14.68
2022-08-07T01:07:09.320Z,14.47
2022-08-07T01:10:06.642Z,14.70
2022-08-07T01:12:39.509Z,14.48
2022-08-07T01:16:00.969Z,14.73
2022-08-07T01:18:24.787Z,14.85
2022-08-07T01:21:22.810Z,14.38
2022-08-07T01:23:58.269Z,14.64
2022-08-07T01:26:33.546Z,14.25
2022-08-07T01:29:07.900Z,14.26
2022-08-07T01:31:42.725Z,14.19
2022-08-07T01:34:30.618Z,14.19
2022-08-07T01:37:09.909Z,14.09
2022-08-07T01:39:47.746Z,14.21
2022-08-07T01:42:40.058Z,14.38
2022-08-07T01:45:18.055Z,13.85
2022-08-07T01:48:19.637Z,13.87
2022-08-07T01:50:46.994Z,13.93
2022-08-07T01:54:08.434Z,14.18
2022-08-07T01:56:25.286Z,13.68
2022-08-07T01:59:19.816Z,13.99
2022-08-07T02:02:04.424Z,13.86
2022-08-07T02:04:56.473Z,13.62
2022-08-07T02:07:50.482Z,13.43
2022-08-07T02:10:58.165Z,13.50
2022-08-07T02:13:56.765Z,13.75
2022-08-07T02:16:33.323Z,13.92
2022-08-07T02:20:05.817Z,13.58
2022-08-07T02:22:07.915Z,13.46
2022-08-07T02:24:44.679Z,13.58
2022-08-07T02:27:21.342Z,13.47
2022-08-07T02:30:00.447Z,13.48
2022-08-07T02:33:00.706Z,13.32
2022-08-07T02:36:28.645Z,13.66
2022-08-07T02:38:31.847Z,13.73
2022-08-07T02:41:07.916Z,13.24
2022-08-07T02:43:43.321Z,13.63
2022-08-07T02:46:23.248Z,13.22
2022-08-07T02:48:58.473Z,13.29
2022-08-07T02:51:51.910Z,13.79
2022-08-07T02:54:33.635Z,13.41
2022-08-07T03:00:39.218Z,13.96
2022-08-07T03:03:29.603Z,13.43
2022-08-07T03:06:26.201Z,13.28
2022-08-07T03:09:11.613Z,13.62
2022-08-07T03:11:51.779Z,13.08
2022-08-07T03:15:07.928Z,13.29
2022-08-07T03:17:59.392Z,13.49
2022-08-07T03:20:34.929Z,13.84
2022-08-07T03:24:19.469Z,13.46
2022-08-07T03:26:35.368Z,13.72
2022-08-07T03:29:54.481Z,13.57
2022-08-07T03:32:38.986Z,13.79
2022-08-07T03:35:49.880Z,13.56
2022-08-07T03:38:33.356Z,13.63
2022-08-07T03:41:14.216Z,13.09
2022-08-07T03:44:07.395Z,12.99
2022-08-07T03:47:13.777Z,13.18
2022-08-07T03:50:00.808Z,12.90
2022-08-07T03:52:37.614Z,12.82
2022-08-07T03:55:20.444Z,12.85
2022-08-07T03:58:35.058Z,13.05
2022-08-07T04:00:54.893Z,12.86
2022-08-07T04:03:53.442Z,13.25
2022-08-07T04:06:37.952Z,13.25
2022-08-07T04:09:23.451Z,13.19
2022-08-07T04:12:26.520Z,12.87
2022-08-07T04:14:56.345Z,12.83
2022-08-07T04:18:31.917Z,12.80
2022-08-07T04:20:25.488Z,12.69
2022-08-07T04:23:01.817Z,12.67
2022-08-07T04:25:41.021Z,13.14
2022-08-07T04:28:14.892Z,12.83
2022-08-07T04:30:57.341Z,12.68
2022-08-07T04:33:38.193Z,12.96
2022-08-07T04:36:10.718Z,13.16
2022-08-07T04:38:40.100Z,13.14
2022-08-07T04:41:18.076Z,12.92
2022-08-07T04:44:09.947Z,13.19
2022-08-07T04:47:04.800Z,12.68
2022-08-07T04:50:03.678Z,12.87
2022-08-07T04:52:58.822Z,12.77
2022-08-07T04:58:24.304Z,13.04
2022-08-07T05:00:09.988Z,13.41
2022-08-07T05:02:17.166Z,13.01
2022-08-07T05:05:53.463Z,13.49
2022-08-07T05:08:20.280Z,13.58
2022-08-07T05:11:19.530Z,13.36
2022-08-07T05:14:52.168Z,13.36
2022-08-07T05:17:05.753Z,13.14
2022-08-07T05:19:48.726Z,13.29
2022-08-07T05:22:28.485Z,13.18
2022-08-07T05:25:00.781Z,12.96
2022-08-07T05:28:02.615Z,13.17
2022-08-07T05:30:30.159Z,13.20
2022-08-07T05:33:04.181Z,13.22
2022-08-07T05:35:41.924Z,13.54
2022-08-07T05:39:00.907Z,13.61
2022-08-07T05:41:14.100Z,13.40
2022-08-07T05:44:08.448Z,13.73
2022-08-07T05:46:51.258Z,13.91
2022-08-07T05:49:27.940Z,13.90
2022-08-07T05:52:32.490Z,13.75
2022-08-07T05:55:10.690Z,14.02
2022-08-07T05:57:47.919Z,13.76
2022-08-07T06:00:18.667Z,14.07
2022-08-07T06:02:56.951Z,14.31
2022-08-07T06:05:29.066Z,14.36
2022-08-07T06:08:13.717Z,14.20
2022-08-07T06:10:54.882Z,14.57
2022-08-07T06:14:12.211Z,14.73
2022-08-07T06:16:25.471Z,14.72
2022-08-07T06:19:06.480Z,14.82
2022-08-07T06:22:15.556Z,14.92
2022-08-07T06:24:57.631Z,14.82
2022-08-07T06:27:44.403Z,15.13
2022-08-07T06:30:36.235Z,15.46
2022-08-07T06:33:16.904Z,15.59
2022-08-07T06:36:13.298Z,15.48
2022-08-07T06:38:58.793Z,15.91
2022-08-07T06:42:20.081Z,15.72
2022-08-07T06:45:25.133Z,16.11
2022-08-07T06:48:03.044Z,16.40
2022-08-07T06:50:43.192Z,16.49
2022-08-07T06:53:49.135Z,16.53
2022-08-07T06:56:15.474Z,16.66
2022-08-07T07:00:13.122Z,16.61
2022-08-07T07:01:50.939Z,16.98
2022-08-07T07:04:27.704Z,17.11
2022-08-07T07:07:19.418Z,17.32
2022-08-07T07:09:52.233Z,17.40
2022-08-07T07:12:50.818Z,17.59
2022-08-07T07:15:32.474Z,17.81
2022-08-07T07:18:47.779Z,17.95
2022-08-07T07:21:27.036Z,18.08
2022-08-07T07:24:15.420Z,17.88
2022-08-07T07:26:51.896Z,18.02
2022-08-07T07:29:56.364Z,18.45
2022-08-07T07:32:16.927Z,18.48
2022-08-07T07:34:48.628Z,18.68
2022-08-07T07:37:45.133Z,18.61
2022-08-07T07:40:26.311Z,18.90
2022-08-07T07:42:57.948Z,18.96
2022-08-07T07:46:38.175Z,19.09
2022-08-07T07:48:36.129Z,19.18
2022-08-07T07:51:08.039Z,19.36
2022-08-07T07:53:51.675Z,19.30
2022-08-07T07:56:36.966Z,19.44
2022-08-07T07:59:06.233Z,19.58
2022-08-07T08:02:02.667Z,19.59
2022-08-07T08:04:38.571Z,19.64
2022-08-07T08:07:20.018Z,19.68
2022-08-07T08:09:51.668Z,19.95
2022-08-07T08:12:52.104Z,19.94
2022-08-07T08:15:23.452Z,19.92
2022-08-07T08:18:17.187Z,19.73
2022-08-07T08:20:51.026Z,20.17
2022-08-07T08:23:46.303Z,20.30
2022-08-07T08:26:37.166Z,20.43
2022-08-07T08:29:18.360Z,20.39
2022-08-07T08:32:16.820Z,20.60
2022-08-07T08:34:54.491Z,20.85
2022-08-07T08:38:01.072Z,20.92
2022-08-07T08:40:31.565Z,20.76
2022-08-07T08:43:12.743Z,20.62
2022-08-07T08:46:07.574Z,20.89
2022-08-07T08:48:50.898Z,20.86
2022-08-07T08:52:00.910Z,21.02
2022-08-07T08:54:34.867Z,21.10
2022-08-07T08:57:14.451Z,21.42
2022-08-07T09:00:14.133Z,21.24
2022-08-07T09:03:07.523Z,21.53
2022-08-07T09:05:54.097Z,21.70
2022-08-07T09:08:46.829Z,21.73
2022-08-07T09:11:50.567Z,21.90
2022-08-07T09:16:24.390Z,21.76
2022-08-07T09:18:06.071Z,22.44
2022-08-07T09:21:13.978Z,22.50
2022-08-07T09:24:55.276Z,22.60
2022-08-07T09:28:00.331Z,22.56
2022-08-07T09:31:08.480Z,22.64
2022-08-07T09:34:16.789Z,22.76
2022-08-07T09:37:03.616Z,22.43
2022-08-07T09:39:58.173Z,22.42
2022-08-07T09:42:54.963Z,22.64
2022-08-07T09:47:54.960Z,22.61
2022-08-07T09:50:02.687Z,22.63
2022-08-07T09:52:34.258Z,22.54
2022-08-07T09:56:02.803Z,22.58
2022-08-07T09:59:00.252Z,22.97
2022-08-07T10:02:32.761Z,22.84
2022-08-07T10:05:29.661Z,22.63
2022-08-07T10:08:59.096Z,22.82
2022-08-07T10:12:21.498Z,22.70
2022-08-07T10:15:44.521Z,22.94
2022-08-07T10:18:45.115Z,23.13
2022-08-07T10:22:14.604Z,23.33
2022-08-07T10:24:46.200Z,23.54
2022-08-07T10:27:51.202Z,23.67
2022-08-07T10:30:53.692Z,23.63
2022-08-07T10:34:17.860Z,23.73
2022-08-07T10:37:04.037Z,23.91
2022-08-07T10:40:14.019Z,23.61
2022-08-07T10:43:43.248Z,23.95
2022-08-07T10:46:21.890Z,24.09
2022-08-07T10:49:49.013Z,24.14
2022-08-07T10:53:05.266Z,24.17
2022-08-07T10:55:53.732Z,24.34
2022-08-07T10:59:06.459Z,24.18
2022-08-07T11:01:52.069Z,24.19
2022-08-07T11:04:51.199Z,24.04
2022-08-07T11:10:08.744Z,24.27
2022-08-07T11:11:20.816Z,24.54
2022-08-07T11:14:44.699Z,24.64
2022-08-07T11:17:53.974Z,24.78
2022-08-07T11:20:36.061Z,24.83
2022-08-07T11:23:38.376Z,24.88
2022-08-07T11:26:34.645Z,25.17
2022-08-07T11:29:42.977Z,25.01
2022-08-07T11:32:41.720Z,25.17
2022-08-07T11:35:22.727Z,25.08
2022-08-07T11:38:29.763Z,25.57
2022-08-07T11:41:18.258Z,25.44
2022-08-07T11:44:12.710Z,25.18
2022-08-07T11:47:23.113Z,25.14
2022-08-07T11:50:57.742Z,25.21
2022-08-07T11:54:01.471Z,25.34
2022-08-07T11:56:59.109Z,24.91
2022-08-07T12:00:12.465Z,25.09
2022-08-07T12:03:07.966Z,25.09
2022-08-07T12:06:55.401Z,24.91
2022-08-07T12:09:51.355Z,24.96
2022-08-07T12:13:17.123Z,25.11
2022-08-07T12:16:06.725Z,24.97
2022-08-07T12:18:57.948Z,25.14
2022-08-07T12:22:36.971Z,24.99
2022-08-07T12:26:02.797Z,24.50
2022-08-07T12:29:04.284Z,24.23
2022-08-07T12:32:13.075Z,24.84
2022-08-07T12:34:49.480Z,24.80
2022-08-07T12:38:11.759Z,24.97
2022-08-07T12:40:47.828Z,24.98
2022-08-07T12:44:02.859Z,25.14
2022-08-07T12:46:50.782Z,25.26
2022-08-07T12:49:51.731Z,25.43
2022-08-07T12:52:53.038Z,25.11
2022-08-07T12:55:41.065Z,24.94
2022-08-07T12:58:14.866Z,24.97
2022-08-07T13:01:13.794Z,24.69
2022-08-07T13:04:32.608Z,24.68
2022-08-07T13:08:12.655Z,24.10
2022-08-07T13:10:52.547Z,24.63
2022-08-07T13:13:48.717Z,24.32
2022-08-07T13:16:40.466Z,24.53
2022-08-07T13:19:46.324Z,24.78
2022-08-07T13:22:52.463Z,24.82
2022-08-07T13:26:00.940Z,24.88
2022-08-07T13:28:44.641Z,24.64
2022-08-07T13:31:22.878Z,24.35
2022-08-07T13:34:31.621Z,24.49
2022-08-07T13:37:19.941Z,24.47
2022-08-07T13:40:35.675Z,24.69
2022-08-07T13:42:51.999Z,24.48
2022-08-07T13:46:11.339Z,24.80
2022-08-07T13:48:27.867Z,24.82
2022-08-07T13:51:20.440Z,24.99
2022-08-07T13:54:00.422Z,24.82
2022-08-07T13:56:41.257Z,24.80
2022-08-07T14:02:33.276Z,25.03
2022-08-07T14:08:10.223Z,25.06
2022-08-07T14:11:14.389Z,24.93
2022-08-07T14:13:45.071Z,24.63
2022-08-07T14:16:16.907Z,24.63
2022-08-07T14:18:57.041Z,24.75
2022-08-07T14:22:03.883Z,24.79
2022-08-07T14:24:33.429Z,24.78
2022-08-07T14:28:09.921Z,24.50
2022-08-07T14:30:11.079Z,24.73
2022-08-07T14:32:47.931Z,24.79
2022-08-07T14:35:45.513Z,24.85
2022-08-07T14:38:26.862Z,24.84
2022-08-07T14:41:04.810Z,24.69
2022-08-07T14:43:59.292Z,24.68
2022-08-07T14:46:51.950Z,24.88
2022-08-07T14:49:57.149Z,24.78
2022-08-07T14:52:36.113Z,24.49
2022-08-07T14:55:17.741Z,24.73
2022-08-07T15:00:42.864Z,24.79
2022-08-07T15:03:19.089Z,24.87
2022-08-07T15:05:55.326Z,24.25
2022-08-07T15:08:50.123Z,24.23
2022-08-07T15:11:53.706Z,24.35
2022-08-07T15:14:30.570Z,24.38
2022-08-07T15:17:05.441Z,24.15
2022-08-07T15:20:33.904Z,24.04
2022-08-07T15:22:53.567Z,24.07
2022-08-07T15:25:27.043Z,23.98
2022-08-07T15:28:34.737Z,23.86
2022-08-07T15:31:05.574Z,23.69
2022-08-07T15:39:16.828Z,23.83
2022-08-07T15:42:45.877Z,23.74
2022-08-07T15:44:56.919Z,23.64
2022-08-07T15:47:59.844Z,23.64
2022-08-07T15:53:21.773Z,23.86
2022-08-07T15:56:02.846Z,23.60
2022-08-07T15:59:00.360Z,23.69
2022-08-07T16:01:38.500Z,23.61
2022-08-07T16:04:15.091Z,23.66
2022-08-07T16:06:54.928Z,23.71
2022-08-07T16:09:52.311Z,23.67
2022-08-07T16:12:58.202Z,23.76
2022-08-07T16:15:57.473Z,23.71
2022-08-07T16:18:58.240Z,23.81
2022-08-07T16:22:19.215Z,23.91
2022-08-07T16:25:07.548Z,23.76
2022-08-07T16:27:48.601Z,23.81
2022-08-07T16:30:32.607Z,23.82
2022-08-07T16:34:01.626Z,23.56
2022-08-07T16:37:02.432Z,23.67
2022-08-07T16:40:28.755Z,23.64
2022-08-07T16:44:03.929Z,23.43
2022-08-07T16:47:28.844Z,23.53
2022-08-07T16:50:27.974Z,23.37
2022-08-07T16:53:55.555Z,23.29
2022-08-07T16:56:37.464Z,23.39
2022-08-07T16:59:46.211Z,23.43
2022-08-07T17:02:53.025Z,23.46
2022-08-07T17:06:28.773Z,23.60
2022-08-07T17:09:04.354Z,23.23
2022-08-07T17:12:04.375Z,23.38
2022-08-07T17:14:53.025Z,23.40
2022-08-07T17:17:53.170Z,23.33
2022-08-07T17:20:46.470Z,23.24
2022-08-07T17:23:43.755Z,23.13
2022-08-07T17:27:05.288Z,23.07
2022-08-07T17:30:15.610Z,22.98
2022-08-07T17:34:09.586Z,22.74
2022-08-07T17:36:13.435Z,22.99
2022-08-07T17:39:10.090Z,22.98
2022-08-07T17:42:04.863Z,22.85
2022-08-07T17:44:50.770Z,22.78
2022-08-07T17:47:37.748Z,22.81
2022-08-07T17:50:23.004Z,22.81
2022-08-07T17:53:09.067Z,22.73
2022-08-07T17:56:06.737Z,22.90
2022-08-07T17:58:57.869Z,22.79
2022-08-07T18:02:14.691Z,22.88
2022-08-07T18:04:49.310Z,22.83
2022-08-07T18:07:35.554Z,22.80
2022-08-07T18:10:32.406Z,22.50
2022-08-07T18:13:17.499Z,22.63
2022-08-07T18:16:33.463Z,22.51
2022-08-07T18:21:11.945Z,22.40
2022-08-07T18:22:34.849Z,22.36
2022-08-07T18:25:19.300Z,22.38
2022-08-07T18:28:35.532Z,22.30
2022-08-07T18:31:26.726Z,22.25
2022-08-07T18:34:40.971Z,22.10
2022-08-07T18:38:55.947Z,22.20
2022-08-07T18:41:10.013Z,22.23
2022-08-07T18:44:02.773Z,22.26
2022-08-07T18:46:35.966Z,22.14
2022-08-07T18:50:35.138Z,22.23
2022-08-07T18:52:56.973Z,22.19
2022-08-07T18:56:02.664Z,22.16
2022-08-07T18:58:51.341Z,21.98
2022-08-07T19:02:32.118Z,21.70
2022-08-07T19:05:16.064Z,21.70
2022-08-07T19:08:06.679Z,21.68
2022-08-07T19:10:51.301Z,21.69
2022-08-07T19:14:19.863Z,21.59
2022-08-07T19:17:08.047Z,21.48
2022-08-07T19:20:28.887Z,21.54
2022-08-07T19:23:19.408Z,21.51
2022-08-07T19:26:25.067Z,21.42
2022-08-07T19:31:01.644Z,21.33
2022-08-07T19:32:18.502Z,21.22
2022-08-07T19:34:59.308Z,21.23
2022-08-07T19:37:55.634Z,21.08
2022-08-07T19:40:30.981Z,20.99
2022-08-07T19:43:50.332Z,20.80
2022-08-07T19:46:35.493Z,20.81
2022-08-07T19:49:17.255Z,20.53
2022-08-07T19:52:00.316Z,20.90
2022-08-07T19:54:55.923Z,20.55
2022-08-07T19:58:02.495Z,20.49
2022-08-07T20:00:37.875Z,20.33
2022-08-07T20:03:35.354Z,20.42
2022-08-07T20:06:30.426Z,20.06
2022-08-07T20:10:33.690Z,19.89
2022-08-07T20:12:22.976Z,19.80
2022-08-07T20:14:54.033Z,19.63
2022-08-07T20:17:30.796Z,19.50
2022-08-07T20:20:09.921Z,19.27
2022-08-07T20:22:47.669Z,19.15
2022-08-07T20:25:19.769Z,18.97
2022-08-07T20:27:58.260Z,18.99
2022-08-07T20:30:36.899Z,19.03
2022-08-07T20:33:08.950Z,18.87
2022-08-07T20:35:54.680Z,18.93
2022-08-07T20:38:32.817Z,18.72
2022-08-07T20:41:14.299Z,18.41
2022-08-07T20:43:47.740Z,18.68
2022-08-07T20:46:26.962Z,18.57
2022-08-07T20:49:58.466Z,18.52
2022-08-07T20:51:57.415Z,18.16
2022-08-07T20:54:36.914Z,18.62
2022-08-07T20:57:14.570Z,18.43
2022-08-07T21:00:05.519Z,18.32
2022-08-07T21:03:00.057Z,18.45
2022-08-07T21:05:54.687Z,18.32
2022-08-07T21:09:00.980Z,18.25
2022-08-07T21:11:46.106Z,18.15
2022-08-07T21:14:32.809Z,18.20
2022-08-07T21:18:17.525Z,18.11
2022-08-07T21:20:09.961Z,17.76
2022-08-07T21:22:53.581Z,17.79
2022-08-07T21:25:42.609Z,17.69
2022-08-07T21:28:48.724Z,17.46
2022-08-07T21:32:47.821Z,17.39
2022-08-07T21:35:02.584Z,17.38
2022-08-07T21:38:04.690Z,17.28
2022-08-07T21:41:01.069Z,17.39
2022-08-07T21:44:14.657Z,17.28
2022-08-07T21:47:07.481Z,17.15
2022-08-07T21:50:27.209Z,17.17
2022-08-07T21:53:36.982Z,17.13
2022-08-07T21:56:46.999Z,17.11
2022-08-07T22:00:05.062Z,17.08
2022-08-07T22:02:50.986Z,16.95
2022-08-07T22:05:45.160Z,17.04
2022-08-07T22:08:20.940Z,16.99
2022-08-07T22:11:00.223Z,16.50
2022-08-07T22:13:52.441Z,16.87
2022-08-07T22:16:46.920Z,16.93
2022-08-07T22:19:52.418Z,16.92
2022-08-07T22:22:44.716Z,16.80
2022-08-07T22:25:36.473Z,16.64
2022-08-07T22:28:41.286Z,16.27
2022-08-07T22:32:00.443Z,16.61
2022-08-07T22:34:54.682Z,16.61
2022-08-07T22:38:01.840Z,16.61
2022-08-07T22:42:03.958Z,16.57
2022-08-07T22:44:58.755Z,16.56
2022-08-07T22:48:02.630Z,16.56
2022-08-07T22:51:26.962Z,16.35
2022-08-07T22:55:34.056Z,16.52
2022-08-07T22:58:57.913Z,16.41
2022-08-07T23:02:08.342Z,16.20
2022-08-07T23:06:08.980Z,16.19
2022-08-07T23:08:47.895Z,16.11
2022-08-07T23:12:12.582Z,16.15
2022-08-07T23:15:21.946Z,16.10
2022-08-07T23:18:42.173Z,16.08
2022-08-07T23:24:33.101Z,15.86
2022-08-07T23:27:33.899Z,15.93
2022-08-07T23:30:37.429Z,15.95
2022-08-07T23:34:34.012Z,16.20
2022-08-07T23:38:00.306Z,16.32
2022-08-07T23:40:39.713Z,16.35
2022-08-07T23:43:37.597Z,16.09
2022-08-07T23:46:59.127Z,16.24
2022-08-07T23:50:06.452Z,16.26
2022-08-07T23:58:35.361Z,15.81
